Ryuhomaru — JD2639 — position and weather

sailwx.info

Track history (hours):
 
Tides and Currents Weather Stations Pressure Air Temp Water Temp Dewpoint Dewpoint Depression Visibility Wind Speed Wind Dir Waves Ship Positions

Ryuhomaru

Last reported at 2018-Feb-18 07:42 UTC. Time now 2018-Feb-19 15:22 UTC.
Position N 34°33' E 135°27'.

Length 42 m; draft 3.5 m.

Type: Tug. MMSI: 431000586.

Date/timePositionNaut miles runAvg speedWind from/ knotsBaromVisibWave heightAir tempDewpointWater temp
2018-Feb-18 07:42N 34°33' E 135°27'0 0.0
2018-Feb-18 07:30N 34°33' E 135°27'4 8.5
2018-Feb-18 07:01N 34°36' E 135°23'3 5.5
2018-Feb-18 06:31N 34°39' E 135°24'3 6.2
2018-Feb-18 06:00N 34°36' E 135°24'3 6.9
2018-Feb-18 05:30N 34°33' E 135°27'0 0.0
2018-Feb-18 05:00N 34°33' E 135°27'0 0.0
2018-Feb-18 04:31N 34°33' E 135°27'0 0.0
2018-Feb-18 04:00N 34°33' E 135°27'0 0.0
2018-Feb-18 03:30N 34°33' E 135°27'0 0.0
2018-Feb-18 03:01N 34°33' E 135°27'0 0.0
2018-Feb-18 02:31N 34°33' E 135°27'1 1.0
2018-Feb-18 02:00N 34°33' E 135°26'1 2.2
2018-Feb-18 01:30N 34°33' E 135°25'0 0.3
2018-Feb-18 01:01N 34°33' E 135°25'1 2.4
2018-Feb-18 00:31N 34°33' E 135°24'3 6.8
2018-Feb-18 00:01N 34°34' E 135°20'1 1.0
2018-Feb-17 23:31N 34°34' E 135°20'5 9.8
2018-Feb-17 23:00N 34°33' E 135°26'0 0.9
2018-Feb-17 22:30N 34°33' E 135°27'0 0.0
2018-Feb-17 22:00N 34°33' E 135°27'0 0.0
2018-Feb-17 06:23N 34°33' E 135°27'1 1.5
2018-Feb-17 06:01N 34°33' E 135°26'714.1
2018-Feb-17 05:31N 34°30' E 135°18'714.3
2018-Feb-17 05:00N 34°26' E 135°11'714.0
2018-Feb-17 04:31N 34°21' E 135°05'713.1
2018-Feb-17 04:01N 34°17' E 134°60'4 7.4
2018-Feb-17 03:30N 34°20' E 134°60'713.4
2018-Feb-17 03:01N 34°25' E 135°06'713.7
2018-Feb-17 02:30N 34°29' E 135°13'510.8
2018-Feb-17 02:01N 34°31' E 135°18'4 7.6
2018-Feb-17 01:31N 34°33' E 135°22'2 3.4
2018-Feb-17 01:00N 34°34' E 135°24'0 0.2
2018-Feb-17 00:30N 34°34' E 135°24'1 1.6
2018-Feb-17 00:01N 34°33' E 135°25'1 2.5
2018-Feb-16 23:31N 34°33' E 135°27'0 0.0
2018-Feb-16 23:01N 34°33' E 135°27'0 0.0
2018-Feb-16 07:33N 34°33' E 135°27'0 0.1
2018-Feb-16 07:30N 34°33' E 135°27'3 5.2
2018-Feb-16 07:00N 34°34' E 135°24'5 9.0
2018-Feb-16 06:29N 34°39' E 135°24'0 0.2
2018-Feb-16 06:00N 34°39' E 135°24'3 6.2
2018-Feb-16 05:30N 34°36' E 135°24'4 7.0
2018-Feb-16 05:00N 34°33' E 135°27'2 3.4
2018-Feb-16 04:30N 34°33' E 135°25'0 0.6
2018-Feb-16 04:00N 34°34' E 135°24'0 0.0
2018-Feb-16 03:30N 34°34' E 135°24'0 0.2
2018-Feb-16 03:01N 34°34' E 135°24'1 1.7
2018-Feb-16 02:30N 34°33' E 135°23'3 5.3
2018-Feb-16 02:01N 34°33' E 135°20'1 2.4
2018-Feb-16 01:30N 34°34' E 135°20'4 7.3
2018-Feb-16 01:00N 34°34' E 135°24'0 0.3
2018-Feb-16 00:30N 34°34' E 135°24'0 0.2
2018-Feb-16 00:00N 34°34' E 135°24'1 1.4
2018-Feb-15 23:31N 34°33' E 135°24'3 6.0
2018-Feb-15 23:00N 34°33' E 135°20'3 7.0
2018-Feb-15 22:30N 34°32' E 135°16'612.1
2018-Feb-15 22:00N 34°28' E 135°10'714.1
2018-Feb-15 21:30N 34°23' E 135°05'714.8
2018-Feb-15 21:00N 34°17' E 134°59'611.6
2018-Feb-15 20:30N 34°11' E 134°59'0 0.8
2018-Feb-15 20:01N 34°11' E 134°58'611.3
2018-Feb-15 19:30N 34°17' E 134°59'713.3
2018-Feb-15 19:00N 34°23' E 135°02'714.4
2018-Feb-15 18:30N 34°27' E 135°09'714.8
2018-Feb-15 18:00N 34°30' E 135°17'714.2
2018-Feb-15 17:30N 34°33' E 135°25'1 2.6
2018-Feb-15 17:00N 34°33' E 135°27'0 0.0
2018-Feb-15 16:31N 34°33' E 135°27'0 0.0
2018-Feb-14 10:04N 34°33' E 135°27'0 0.0
2018-Feb-14 10:00N 34°33' E 135°27'3 5.9
2018-Feb-14 09:31N 34°35' E 135°24'5 9.0
2018-Feb-14 09:01N 34°39' E 135°25'1 1.9
2018-Feb-14 08:30N 34°39' E 135°24'1 2.8
2018-Feb-14 08:01N 34°37' E 135°23'0 0.3
2018-Feb-14 07:30N 34°37' E 135°23'2 3.1
2018-Feb-14 07:01N 34°36' E 135°24'0 0.0
2018-Feb-14 06:30N 34°36' E 135°24'0 0.0
2018-Feb-14 06:01N 34°36' E 135°24'0 0.0
2018-Feb-14 05:31N 34°36' E 135°24'0 0.0
2018-Feb-14 05:00N 34°36' E 135°24'0 0.0
2018-Feb-14 04:29N 34°36' E 135°24'0 0.0
2018-Feb-14 04:00N 34°36' E 135°24'0 0.0
2018-Feb-14 03:31N 34°36' E 135°24'0 0.0
2018-Feb-14 03:00N 34°36' E 135°24'0 0.0
2018-Feb-14 02:30N 34°36' E 135°24'0 0.0
2018-Feb-14 01:59N 34°36' E 135°24'0 0.0
2018-Feb-14 01:31N 34°36' E 135°24'2 4.6
2018-Feb-14 01:01N 34°34' E 135°24'0 0.0
2018-Feb-14 00:30N 34°34' E 135°24'1 1.3
2018-Feb-14 00:00N 34°33' E 135°24'2 4.7
2018-Feb-13 23:30N 34°33' E 135°21'2 3.1
2018-Feb-13 23:00N 34°34' E 135°19'2 4.8
2018-Feb-13 22:30N 34°34' E 135°22'4 7.1
2018-Feb-13 21:59N 34°33' E 135°27'0 0.0
2018-Feb-13 21:30N 34°33' E 135°27'0 0.0
2018-Feb-13 09:50N 34°33' E 135°27'0 0.2
2018-Feb-13 09:31N 34°33' E 135°27'3 6.9
2018-Feb-13 09:00N 34°31' E 135°23'1 1.9
2018-Feb-13 08:30N 34°32' E 135°23'3 6.2
2018-Feb-13 08:00N 34°33' E 135°27'0 0.0
2018-Feb-13 07:30N 34°33' E 135°27'0 0.0
2018-Feb-13 07:00N 34°33' E 135°27'0 0.0
2018-Feb-13 06:30N 34°33' E 135°27'0 0.0
2018-Feb-13 06:00N 34°33' E 135°27'0 0.0
2018-Feb-13 05:30N 34°33' E 135°27'0 0.0
2018-Feb-13 05:00N 34°33' E 135°27'0 0.0
2018-Feb-13 04:30N 34°33' E 135°27'0 0.7
2018-Feb-13 04:00N 34°33' E 135°26'0 0.5
2018-Feb-13 03:30N 34°33' E 135°27'0 0.2
2018-Feb-13 03:00N 34°33' E 135°27'0 0.0
2018-Feb-13 02:30N 34°33' E 135°27'0 0.0
2018-Feb-13 02:00N 34°33' E 135°27'0 0.0
2018-Feb-13 01:30N 34°33' E 135°27'0 0.0
2018-Feb-13 01:00N 34°33' E 135°27'0 0.0
2018-Feb-13 00:30N 34°33' E 135°27'0 0.0
2018-Feb-13 00:00N 34°33' E 135°27'0 0.0
2018-Feb-12 23:30N 34°33' E 135°27'0 0.0
2018-Feb-12 23:01N 34°33' E 135°27'0 0.0
2018-Feb-12 05:44N 34°33' E 135°27'0 0.0
2018-Feb-12 05:30N 34°33' E 135°27'3 6.6
2018-Feb-12 05:00N 34°31' E 135°23'0 0.9
2018-Feb-12 04:30N 34°31' E 135°24'3 6.1
2018-Feb-12 04:01N 34°33' E 135°26'1 1.7
2018-Feb-12 03:30N 34°33' E 135°27'0 0.0
2018-Feb-12 03:01N 34°33' E 135°27'0 0.0
2018-Feb-12 02:30N 34°33' E 135°27'0 0.0
2018-Feb-12 02:01N 34°33' E 135°27'0 0.0
2018-Feb-12 01:30N 34°33' E 135°27'0 0.0
2018-Feb-12 01:01N 34°33' E 135°27'0 0.0
2018-Feb-12 00:30N 34°33' E 135°27'0 0.0
2018-Feb-12 00:01N 34°33' E 135°27'0 0.0
2018-Feb-11 23:30N 34°33' E 135°27'0 0.0
2018-Feb-11 23:01N 34°33' E 135°27'1 1.4
2018-Feb-11 22:31N 34°33' E 135°26'1 1.8
2018-Feb-11 22:00N 34°34' E 135°25'1 2.5
2018-Feb-11 21:30N 34°33' E 135°26'0 0.9
2018-Feb-11 21:00N 34°33' E 135°27'0 0.0
2018-Feb-11 20:30N 34°33' E 135°27'0 0.0
2018-Feb-11 20:00N 34°33' E 135°27'0 0.0
2018-Feb-10 06:36N 34°33' E 135°27'0 0.0
2018-Feb-10 06:30N 34°33' E 135°27'3 6.3
2018-Feb-10 06:00N 34°33' E 135°23'1 2.1
2018-Feb-10 05:30N 34°33' E 135°24'1 1.4
2018-Feb-10 05:00N 34°33' E 135°25'0 0.0
2018-Feb-10 04:30N 34°33' E 135°25'0 0.2
2018-Feb-10 04:00N 34°33' E 135°25'0 0.1
2018-Feb-10 03:30N 34°33' E 135°25'0 0.0
2018-Feb-10 03:00N 34°33' E 135°25'0 0.1
2018-Feb-10 02:30N 34°33' E 135°25'0 0.1
2018-Feb-10 02:00N 34°33' E 135°25'0 0.2
2018-Feb-10 01:30N 34°33' E 135°25'0 0.2
2018-Feb-10 01:00N 34°33' E 135°25'0 0.1
2018-Feb-10 00:30N 34°33' E 135°25'0 0.1
2018-Feb-10 00:00N 34°33' E 135°25'0 0.0
2018-Feb-09 23:30N 34°33' E 135°25'0 0.1
2018-Feb-09 23:00N 34°33' E 135°25'0 0.2
2018-Feb-09 22:46N 34°33' E 135°25'0 0.0
2018-Feb-09 22:00N 34°33' E 135°25'0 0.2
2018-Feb-09 21:00N 34°33' E 135°25'0 0.2
2018-Feb-09 20:30N 34°33' E 135°25'0 0.0
2018-Feb-09 20:00N 34°33' E 135°25'0 0.1
2018-Feb-09 18:30N 34°33' E 135°25'0 0.2
2018-Feb-09 18:00N 34°33' E 135°25'0 0.1
2018-Feb-09 17:30N 34°33' E 135°25'0 0.1
2018-Feb-09 16:30N 34°33' E 135°25'0 0.2
2018-Feb-09 16:00N 34°33' E 135°25'0 0.0
2018-Feb-09 14:31N 34°33' E 135°25'0 0.0
2018-Feb-09 14:00N 34°33' E 135°25'0 0.2
2018-Feb-09 13:30N 34°33' E 135°25'0 0.1
2018-Feb-09 12:30N 34°33' E 135°25'0 0.1
2018-Feb-09 12:01N 34°33' E 135°25'0 0.2
2018-Feb-09 11:30N 34°33' E 135°25'0 0.1
2018-Feb-09 11:01N 34°33' E 135°25'0 0.1
2018-Feb-09 10:00N 34°33' E 135°25'0 0.1
2018-Feb-09 08:30N 34°33' E 135°25'0 0.0
2018-Feb-09 08:00N 34°33' E 135°25'0 0.1
2018-Feb-09 07:30N 34°33' E 135°25'0 0.1
2018-Feb-09 06:30N 34°33' E 135°25'0 0.1
2018-Feb-09 05:00N 34°33' E 135°25'2 4.9
2018-Feb-09 04:30N 34°33' E 135°22'2 2.3
2018-Feb-09 03:30N 34°32' E 135°19'  
Track history (hours):
 
Tides and Currents Weather Stations Pressure Air Temp Water Temp Dewpoint Dewpoint Depression Visibility Wind Speed Wind Dir Waves Ship Positions

Ryuhomaru

Last reported at 2018-Feb-18 07:42 UTC. Time now 2018-Feb-19 15:22 UTC.
Position N 34°33' E 135°27'.

Length 42 m; draft 3.5 m.

Type: Tug. MMSI: 431000586.

Date/timePositionNaut miles runAvg speedWind from/ knotsBaromVisibWave heightAir tempDewpointWater temp
2018-Feb-18 07:42N 34°33' E 135°27'0 0.0
2018-Feb-18 07:30N 34°33' E 135°27'4 8.5
2018-Feb-18 07:01N 34°36' E 135°23'3 5.5
2018-Feb-18 06:31N 34°39' E 135°24'3 6.2
2018-Feb-18 06:00N 34°36' E 135°24'3 6.9
2018-Feb-18 05:30N 34°33' E 135°27'0 0.0
2018-Feb-18 05:00N 34°33' E 135°27'0 0.0
2018-Feb-18 04:31N 34°33' E 135°27'0 0.0
2018-Feb-18 04:00N 34°33' E 135°27'0 0.0
2018-Feb-18 03:30N 34°33' E 135°27'0 0.0
2018-Feb-18 03:01N 34°33' E 135°27'0 0.0
2018-Feb-18 02:31N 34°33' E 135°27'1 1.0
2018-Feb-18 02:00N 34°33' E 135°26'1 2.2
2018-Feb-18 01:30N 34°33' E 135°25'0 0.3
2018-Feb-18 01:01N 34°33' E 135°25'1 2.4
2018-Feb-18 00:31N 34°33' E 135°24'3 6.8
2018-Feb-18 00:01N 34°34' E 135°20'1 1.0
2018-Feb-17 23:31N 34°34' E 135°20'5 9.8
2018-Feb-17 23:00N 34°33' E 135°26'0 0.9
2018-Feb-17 22:30N 34°33' E 135°27'0 0.0
2018-Feb-17 22:00N 34°33' E 135°27'0 0.0
2018-Feb-17 06:23N 34°33' E 135°27'1 1.5
2018-Feb-17 06:01N 34°33' E 135°26'714.1
2018-Feb-17 05:31N 34°30' E 135°18'714.3
2018-Feb-17 05:00N 34°26' E 135°11'714.0
2018-Feb-17 04:31N 34°21' E 135°05'713.1
2018-Feb-17 04:01N 34°17' E 134°60'4 7.4
2018-Feb-17 03:30N 34°20' E 134°60'713.4
2018-Feb-17 03:01N 34°25' E 135°06'713.7
2018-Feb-17 02:30N 34°29' E 135°13'510.8
2018-Feb-17 02:01N 34°31' E 135°18'4 7.6
2018-Feb-17 01:31N 34°33' E 135°22'2 3.4
2018-Feb-17 01:00N 34°34' E 135°24'0 0.2
2018-Feb-17 00:30N 34°34' E 135°24'1 1.6
2018-Feb-17 00:01N 34°33' E 135°25'1 2.5
2018-Feb-16 23:31N 34°33' E 135°27'0 0.0
2018-Feb-16 23:01N 34°33' E 135°27'0 0.0
2018-Feb-16 07:33N 34°33' E 135°27'0 0.1
2018-Feb-16 07:30N 34°33' E 135°27'3 5.2
2018-Feb-16 07:00N 34°34' E 135°24'5 9.0
2018-Feb-16 06:29N 34°39' E 135°24'0 0.2
2018-Feb-16 06:00N 34°39' E 135°24'3 6.2
2018-Feb-16 05:30N 34°36' E 135°24'4 7.0
2018-Feb-16 05:00N 34°33' E 135°27'2 3.4
2018-Feb-16 04:30N 34°33' E 135°25'0 0.6
2018-Feb-16 04:00N 34°34' E 135°24'0 0.0
2018-Feb-16 03:30N 34°34' E 135°24'0 0.2
2018-Feb-16 03:01N 34°34' E 135°24'1 1.7
2018-Feb-16 02:30N 34°33' E 135°23'3 5.3
2018-Feb-16 02:01N 34°33' E 135°20'1 2.4
2018-Feb-16 01:30N 34°34' E 135°20'4 7.3
2018-Feb-16 01:00N 34°34' E 135°24'0 0.3
2018-Feb-16 00:30N 34°34' E 135°24'0 0.2
2018-Feb-16 00:00N 34°34' E 135°24'1 1.4
2018-Feb-15 23:31N 34°33' E 135°24'3 6.0
2018-Feb-15 23:00N 34°33' E 135°20'3 7.0
2018-Feb-15 22:30N 34°32' E 135°16'612.1
2018-Feb-15 22:00N 34°28' E 135°10'714.1
2018-Feb-15 21:30N 34°23' E 135°05'714.8
2018-Feb-15 21:00N 34°17' E 134°59'611.6
2018-Feb-15 20:30N 34°11' E 134°59'0 0.8
2018-Feb-15 20:01N 34°11' E 134°58'611.3
2018-Feb-15 19:30N 34°17' E 134°59'713.3
2018-Feb-15 19:00N 34°23' E 135°02'714.4
2018-Feb-15 18:30N 34°27' E 135°09'714.8
2018-Feb-15 18:00N 34°30' E 135°17'714.2
2018-Feb-15 17:30N 34°33' E 135°25'1 2.6
2018-Feb-15 17:00N 34°33' E 135°27'0 0.0
2018-Feb-15 16:31N 34°33' E 135°27'0 0.0
2018-Feb-14 10:04N 34°33' E 135°27'0 0.0
2018-Feb-14 10:00N 34°33' E 135°27'3 5.9
2018-Feb-14 09:31N 34°35' E 135°24'5 9.0
2018-Feb-14 09:01N 34°39' E 135°25'1 1.9
2018-Feb-14 08:30N 34°39' E 135°24'1 2.8
2018-Feb-14 08:01N 34°37' E 135°23'0 0.3
2018-Feb-14 07:30N 34°37' E 135°23'2 3.1
2018-Feb-14 07:01N 34°36' E 135°24'0 0.0
2018-Feb-14 06:30N 34°36' E 135°24'0 0.0
2018-Feb-14 06:01N 34°36' E 135°24'0 0.0
2018-Feb-14 05:31N 34°36' E 135°24'0 0.0
2018-Feb-14 05:00N 34°36' E 135°24'0 0.0
2018-Feb-14 04:29N 34°36' E 135°24'0 0.0
2018-Feb-14 04:00N 34°36' E 135°24'0 0.0
2018-Feb-14 03:31N 34°36' E 135°24'0 0.0
2018-Feb-14 03:00N 34°36' E 135°24'0 0.0
2018-Feb-14 02:30N 34°36' E 135°24'0 0.0
2018-Feb-14 01:59N 34°36' E 135°24'0 0.0
2018-Feb-14 01:31N 34°36' E 135°24'2 4.6
2018-Feb-14 01:01N 34°34' E 135°24'0 0.0
2018-Feb-14 00:30N 34°34' E 135°24'1 1.3
2018-Feb-14 00:00N 34°33' E 135°24'2 4.7
2018-Feb-13 23:30N 34°33' E 135°21'2 3.1
2018-Feb-13 23:00N 34°34' E 135°19'2 4.8
2018-Feb-13 22:30N 34°34' E 135°22'4 7.1
2018-Feb-13 21:59N 34°33' E 135°27'0 0.0
2018-Feb-13 21:30N 34°33' E 135°27'0 0.0
2018-Feb-13 09:50N 34°33' E 135°27'0 0.2
2018-Feb-13 09:31N 34°33' E 135°27'3 6.9
2018-Feb-13 09:00N 34°31' E 135°23'1 1.9
2018-Feb-13 08:30N 34°32' E 135°23'3 6.2
2018-Feb-13 08:00N 34°33' E 135°27'0 0.0
2018-Feb-13 07:30N 34°33' E 135°27'0 0.0
2018-Feb-13 07:00N 34°33' E 135°27'0 0.0
2018-Feb-13 06:30N 34°33' E 135°27'0 0.0
2018-Feb-13 06:00N 34°33' E 135°27'0 0.0
2018-Feb-13 05:30N 34°33' E 135°27'0 0.0
2018-Feb-13 05:00N 34°33' E 135°27'0 0.0
2018-Feb-13 04:30N 34°33' E 135°27'0 0.7
2018-Feb-13 04:00N 34°33' E 135°26'0 0.5
2018-Feb-13 03:30N 34°33' E 135°27'0 0.2
2018-Feb-13 03:00N 34°33' E 135°27'0 0.0
2018-Feb-13 02:30N 34°33' E 135°27'0 0.0
2018-Feb-13 02:00N 34°33' E 135°27'0 0.0
2018-Feb-13 01:30N 34°33' E 135°27'0 0.0
2018-Feb-13 01:00N 34°33' E 135°27'0 0.0
2018-Feb-13 00:30N 34°33' E 135°27'0 0.0
2018-Feb-13 00:00N 34°33' E 135°27'0 0.0
2018-Feb-12 23:30N 34°33' E 135°27'0 0.0
2018-Feb-12 23:01N 34°33' E 135°27'0 0.0
2018-Feb-12 05:44N 34°33' E 135°27'0 0.0
2018-Feb-12 05:30N 34°33' E 135°27'3 6.6
2018-Feb-12 05:00N 34°31' E 135°23'0 0.9
2018-Feb-12 04:30N 34°31' E 135°24'3 6.1
2018-Feb-12 04:01N 34°33' E 135°26'1 1.7
2018-Feb-12 03:30N 34°33' E 135°27'0 0.0
2018-Feb-12 03:01N 34°33' E 135°27'0 0.0
2018-Feb-12 02:30N 34°33' E 135°27'0 0.0
2018-Feb-12 02:01N 34°33' E 135°27'0 0.0
2018-Feb-12 01:30N 34°33' E 135°27'0 0.0
2018-Feb-12 01:01N 34°33' E 135°27'0 0.0
2018-Feb-12 00:30N 34°33' E 135°27'0 0.0
2018-Feb-12 00:01N 34°33' E 135°27'0 0.0
2018-Feb-11 23:30N 34°33' E 135°27'0 0.0
2018-Feb-11 23:01N 34°33' E 135°27'1 1.4
2018-Feb-11 22:31N 34°33' E 135°26'1 1.8
2018-Feb-11 22:00N 34°34' E 135°25'1 2.5
2018-Feb-11 21:30N 34°33' E 135°26'0 0.9
2018-Feb-11 21:00N 34°33' E 135°27'0 0.0
2018-Feb-11 20:30N 34°33' E 135°27'0 0.0
2018-Feb-11 20:00N 34°33' E 135°27'0 0.0
2018-Feb-10 06:36N 34°33' E 135°27'0 0.0
2018-Feb-10 06:30N 34°33' E 135°27'3 6.3
2018-Feb-10 06:00N 34°33' E 135°23'1 2.1
2018-Feb-10 05:30N 34°33' E 135°24'1 1.4
2018-Feb-10 05:00N 34°33' E 135°25'0 0.0
2018-Feb-10 04:30N 34°33' E 135°25'0 0.2
2018-Feb-10 04:00N 34°33' E 135°25'0 0.1
2018-Feb-10 03:30N 34°33' E 135°25'0 0.0
2018-Feb-10 03:00N 34°33' E 135°25'0 0.1
2018-Feb-10 02:30N 34°33' E 135°25'0 0.1
2018-Feb-10 02:00N 34°33' E 135°25'0 0.2
2018-Feb-10 01:30N 34°33' E 135°25'0 0.2
2018-Feb-10 01:00N 34°33' E 135°25'0 0.1
2018-Feb-10 00:30N 34°33' E 135°25'0 0.1
2018-Feb-10 00:00N 34°33' E 135°25'0 0.0
2018-Feb-09 23:30N 34°33' E 135°25'0 0.1
2018-Feb-09 23:00N 34°33' E 135°25'0 0.2
2018-Feb-09 22:46N 34°33' E 135°25'0 0.0
2018-Feb-09 22:00N 34°33' E 135°25'0 0.2
2018-Feb-09 21:00N 34°33' E 135°25'0 0.2
2018-Feb-09 20:30N 34°33' E 135°25'0 0.0
2018-Feb-09 20:00N 34°33' E 135°25'0 0.1
2018-Feb-09 18:30N 34°33' E 135°25'0 0.2
2018-Feb-09 18:00N 34°33' E 135°25'0 0.1
2018-Feb-09 17:30N 34°33' E 135°25'0 0.1
2018-Feb-09 16:30N 34°33' E 135°25'0 0.2
2018-Feb-09 16:00N 34°33' E 135°25'0 0.0
2018-Feb-09 14:31N 34°33' E 135°25'0 0.0
2018-Feb-09 14:00N 34°33' E 135°25'0 0.2
2018-Feb-09 13:30N 34°33' E 135°25'0 0.1
2018-Feb-09 12:30N 34°33' E 135°25'0 0.1
2018-Feb-09 12:01N 34°33' E 135°25'0 0.2
2018-Feb-09 11:30N 34°33' E 135°25'0 0.1
2018-Feb-09 11:01N 34°33' E 135°25'0 0.1
2018-Feb-09 10:00N 34°33' E 135°25'0 0.1
2018-Feb-09 08:30N 34°33' E 135°25'0 0.0
2018-Feb-09 08:00N 34°33' E 135°25'0 0.1
2018-Feb-09 07:30N 34°33' E 135°25'0 0.1
2018-Feb-09 06:30N 34°33' E 135°25'0 0.1
2018-Feb-09 05:00N 34°33' E 135°25'2 4.9
2018-Feb-09 04:30N 34°33' E 135°22'2 2.3
2018-Feb-09 03:30N 34°32' E 135°19'  

Dump ship's entire track history